createdAt,value
2019-04-20T00:02:27.489Z,9.23
2019-04-20T01:39:26.062Z,7.57
2019-04-20T02:04:16.974Z,5.50
2019-04-20T02:08:21.427Z,5.73
2019-04-20T02:12:29.247Z,10.53
2019-04-20T02:16:39.164Z,7.57
2019-04-20T02:21:01.383Z,9.57
2019-04-20T02:24:46.799Z,7.00
2019-04-20T02:29:20.294Z,6.40
2019-04-20T02:42:14.495Z,7.73
2019-04-20T02:46:06.489Z,5.73
2019-04-20T02:50:20.627Z,5.30
2019-04-20T02:54:36.942Z,8.40
2019-04-20T02:58:34.763Z,7.20
2019-04-20T03:02:23.370Z,6.97
2019-04-20T03:06:26.364Z,7.97
2019-04-20T03:10:56.669Z,6.17
2019-04-20T03:14:50.292Z,7.70
2019-04-20T03:18:55.798Z,12.60
2019-04-20T03:23:26.847Z,5.57
2019-04-20T03:27:14.586Z,6.87
2019-04-20T03:31:46.991Z,6.03
2019-04-20T03:35:35.161Z,6.80
2019-04-20T03:39:31.366Z,5.57
2019-04-20T03:43:24.529Z,5.47
2019-04-20T03:47:43.802Z,8.17
2019-04-20T03:52:02.756Z,7.50
2019-04-20T03:56:30.905Z,8.47
2019-04-20T04:01:12.603Z,6.83
2019-04-20T04:05:25.056Z,7.20
2019-04-20T04:09:24.862Z,6.93
2019-04-20T04:13:20.966Z,6.83
2019-04-20T04:17:31.893Z,8.80
2019-04-20T04:21:49.675Z,5.47
2019-04-20T04:25:59.372Z,4.03
2019-04-20T04:30:08.036Z,10.13
2019-04-20T04:34:12.508Z,9.77
2019-04-20T04:38:30.096Z,7.37
2019-04-20T04:42:35.153Z,5.60
2019-04-20T04:46:18.788Z,7.00
2019-04-20T04:50:26.979Z,6.37
2019-04-20T04:54:40.085Z,5.47
2019-04-20T04:58:38.500Z,7.63
2019-04-20T05:02:50.585Z,10.27
2019-04-20T05:07:05.016Z,7.40
2019-04-20T05:10:58.363Z,10.03
2019-04-20T05:15:10.132Z,6.43
2019-04-20T05:19:29.772Z,8.80
2019-04-20T05:23:34.960Z,10.30
2019-04-20T05:27:51.271Z,7.17
2019-04-20T05:31:48.635Z,6.50
2019-04-20T05:36:05.668Z,8.03
2019-04-20T05:40:16.222Z,8.93
2019-04-20T05:44:47.130Z,7.87
2019-04-20T05:48:50.541Z,6.43
2019-04-20T05:53:04.573Z,7.93
2019-04-20T05:57:07.914Z,12.37
2019-04-20T06:01:16.104Z,9.17
2019-04-20T06:05:24.796Z,6.47
2019-04-20T06:09:28.574Z,6.83
2019-04-20T06:13:34.820Z,7.70
2019-04-20T06:17:59.742Z,7.80
2019-04-20T06:22:33.724Z,9.20
2019-04-20T06:26:48.836Z,4.37
2019-04-20T06:30:38.638Z,7.40
2019-04-20T06:34:53.477Z,6.17
2019-04-20T06:39:13.476Z,5.27
2019-04-20T06:43:13.291Z,7.73
2019-04-20T06:47:24.689Z,7.70
2019-04-20T06:51:32.384Z,7.10
2019-04-20T06:55:45.210Z,7.20
2019-04-20T06:59:59.803Z,4.20
2019-04-20T07:09:00.586Z,6.33
2019-04-20T07:12:59.875Z,4.47
2019-04-20T07:17:31.685Z,5.10
2019-04-20T07:26:06.686Z,8.17
2019-04-20T07:30:08.080Z,8.57
2019-04-20T07:34:15.831Z,6.07
2019-04-20T07:38:55.240Z,5.20
2019-04-20T07:43:57.377Z,3.80
2019-04-20T07:48:20.655Z,4.33
2019-04-20T07:52:10.056Z,6.97
2019-04-20T07:56:39.299Z,7.20
2019-04-20T08:01:16.565Z,4.27
2019-04-20T08:05:36.739Z,3.97
2019-04-20T08:10:00.349Z,14.23
2019-04-20T08:14:28.087Z,4.70
2019-04-20T08:18:32.221Z,4.17
2019-04-20T08:22:37.046Z,10.63
2019-04-20T08:26:35.770Z,5.93
2019-04-20T08:31:16.916Z,7.90
2019-04-20T08:35:31.875Z,4.30
2019-04-20T08:44:11.136Z,4.60
2019-04-20T08:47:56.423Z,4.10
2019-04-20T08:52:12.363Z,5.37
2019-04-20T08:56:05.915Z,4.40
2019-04-20T09:00:00.919Z,4.23
2019-04-20T09:04:12.487Z,4.50
2019-04-20T09:08:21.246Z,6.80
2019-04-20T09:12:35.714Z,5.23
2019-04-20T09:16:33.590Z,4.93
2019-04-20T09:20:44.656Z,3.60
2019-04-20T09:24:57.666Z,6.93
2019-04-20T09:29:02.799Z,4.80
2019-04-20T09:33:33.624Z,4.10
2019-04-20T09:37:43.488Z,3.67
2019-04-20T09:41:59.862Z,3.90
2019-04-20T09:45:58.559Z,4.20
2019-04-20T09:50:16.847Z,3.60
2019-04-20T09:54:25.794Z,6.23
2019-04-20T09:58:26.332Z,5.80
2019-04-20T10:02:24.988Z,4.40
2019-04-20T10:06:32.228Z,4.50
2019-04-20T10:10:41.607Z,4.47
2019-04-20T10:14:42.729Z,4.47
2019-04-20T10:18:51.694Z,3.83
2019-04-20T10:22:54.416Z,7.13
2019-04-20T10:27:00.714Z,4.73
2019-04-20T10:31:06.464Z,5.23
2019-04-20T10:35:15.011Z,6.13
2019-04-20T10:39:20.429Z,4.03
2019-04-20T10:43:26.020Z,4.40
2019-04-20T10:47:31.242Z,4.10
2019-04-20T10:51:37.826Z,3.47
2019-04-20T10:55:45.175Z,3.40
2019-04-20T10:59:53.355Z,4.73
2019-04-20T11:03:58.743Z,4.57
2019-04-20T11:08:06.500Z,5.40
2019-04-20T11:12:12.541Z,4.70
2019-04-20T11:16:18.160Z,5.40
2019-04-20T11:20:23.614Z,4.00
2019-04-20T11:24:30.108Z,3.90
2019-04-20T11:28:35.491Z,4.70
2019-04-20T11:32:42.078Z,3.90
2019-04-20T11:36:48.825Z,4.33
2019-04-20T11:41:04.197Z,5.17
2019-04-20T11:45:00.965Z,4.00
2019-04-20T11:49:07.762Z,3.97
2019-04-20T11:53:13.322Z,4.80
2019-04-20T11:57:19.595Z,4.43
2019-04-20T12:01:51.902Z,4.80
2019-04-20T12:05:57.889Z,4.83
2019-04-20T12:10:09.042Z,5.13
2019-04-20T12:14:08.652Z,4.27
2019-04-20T12:18:13.836Z,4.00
2019-04-20T12:22:19.451Z,4.20
2019-04-20T12:26:24.937Z,4.67
2019-04-20T12:30:30.532Z,3.90
2019-04-20T12:34:37.140Z,4.40
2019-04-20T12:38:43.368Z,3.27
2019-04-20T12:42:49.063Z,4.10
2019-04-20T12:46:54.339Z,4.07
2019-04-20T12:50:59.769Z,3.50
2019-04-20T12:55:06.446Z,4.43
2019-04-20T12:59:11.739Z,4.77
2019-04-20T13:03:17.313Z,4.60
2019-04-20T13:07:22.931Z,3.90
2019-04-20T13:11:50.753Z,3.67
2019-04-20T13:16:04.593Z,4.00
2019-04-20T13:20:10.058Z,4.03
2019-04-20T13:24:15.127Z,4.60
2019-04-20T13:28:21.151Z,4.30
2019-04-20T13:32:26.121Z,4.27
2019-04-20T13:36:32.442Z,4.27
2019-04-20T13:40:37.733Z,4.53
2019-04-20T13:44:43.246Z,4.90
2019-04-20T13:48:48.931Z,4.07
2019-04-20T13:52:53.924Z,4.00
2019-04-20T13:57:00.142Z,4.83
2019-04-20T14:01:24.155Z,3.73
2019-04-20T14:05:34.973Z,4.20
2019-04-20T14:09:41.545Z,4.73
2019-04-20T14:13:53.367Z,4.30
2019-04-20T14:17:55.155Z,3.60
2019-04-20T14:22:01.973Z,4.77
2019-04-20T14:26:07.473Z,4.03
2019-04-20T14:30:13.042Z,3.63
2019-04-20T14:34:20.595Z,4.10
2019-04-20T14:38:26.453Z,4.67
2019-04-20T14:42:41.851Z,3.97
2019-04-20T14:46:39.961Z,3.80
2019-04-20T14:50:45.693Z,5.33
2019-04-20T14:54:50.994Z,4.30
2019-04-20T14:59:01.785Z,4.17
2019-04-20T15:03:33.153Z,3.40
2019-04-20T15:07:39.055Z,3.80
2019-04-20T15:11:46.083Z,3.77
2019-04-20T15:16:10.856Z,3.70
2019-04-20T15:20:39.469Z,4.13
2019-04-20T15:24:45.300Z,5.50
2019-04-20T15:28:50.670Z,3.47
2019-04-20T15:32:56.833Z,5.40
2019-04-20T15:37:02.481Z,4.40
2019-04-20T15:41:10.176Z,4.63
2019-04-20T15:45:15.667Z,5.97
2019-04-20T15:49:22.130Z,4.23
2019-04-20T15:53:27.474Z,4.13
2019-04-20T15:57:34.619Z,4.23
2019-04-20T16:01:53.357Z,4.27
2019-04-20T16:06:01.190Z,5.20
2019-04-20T16:10:07.489Z,5.17
2019-04-20T16:14:13.587Z,3.93
2019-04-20T16:18:19.132Z,3.70
2019-04-20T16:22:25.905Z,4.57
2019-04-20T16:26:41.961Z,4.13
2019-04-20T16:30:47.579Z,3.93
2019-04-20T16:34:53.368Z,3.60
2019-04-20T16:38:59.488Z,4.97
2019-04-20T16:43:22.129Z,4.30
2019-04-20T16:47:21.998Z,8.57
2019-04-20T16:51:34.795Z,4.33
2019-04-20T16:55:45.225Z,7.70
2019-04-20T16:59:54.176Z,6.93
2019-04-20T17:04:06.527Z,3.33
2019-04-20T17:08:04.939Z,3.43
2019-04-20T17:12:10.467Z,5.77
2019-04-20T17:16:15.949Z,3.95
2019-04-20T17:20:21.984Z,3.73
2019-04-20T17:24:29.380Z,7.37
2019-04-20T17:28:55.257Z,3.10
2019-04-20T17:33:04.073Z,7.93
2019-04-20T17:37:10.543Z,3.40
2019-04-20T17:41:37.162Z,3.60
2019-04-20T17:45:32.970Z,3.83
2019-04-20T17:49:44.889Z,4.73
2019-04-20T17:54:05.140Z,3.63
2019-04-20T17:58:12.169Z,4.63
2019-04-20T18:02:53.493Z,3.30
2019-04-20T18:06:57.693Z,3.60
2019-04-20T18:11:01.859Z,4.60
2019-04-20T18:15:21.741Z,3.00
2019-04-20T18:19:19.011Z,5.03
2019-04-20T18:23:25.563Z,3.97
2019-04-20T18:27:41.471Z,4.43
2019-04-20T18:31:55.617Z,5.57
2019-04-20T18:36:02.495Z,4.43
2019-04-20T18:40:11.426Z,3.70
2019-04-20T18:44:21.090Z,6.27
2019-04-20T18:48:43.654Z,4.60
2019-04-20T23:14:14.427Z,33.27
2019-04-20T23:18:20.224Z,36.40
2019-04-20T23:22:34.029Z,37.03
2019-04-20T23:26:36.704Z,39.20
2019-04-20T23:30:41.150Z,27.10
2019-04-20T23:34:49.103Z,33.70
2019-04-20T23:38:54.685Z,29.53
2019-04-20T23:43:17.776Z,37.87
2019-04-20T23:47:25.532Z,40.80
2019-04-20T23:51:50.977Z,42.07
2019-04-20T23:55:37.112Z,27.43
2019-04-20T23:59:44.822Z,31.87
